sensor_id;sensor_type;location;lat;lon;timestamp;P1;durP1;ratioP1;P2;durP2;ratioP2
1523;SDS011;755;53.658;10.118;2023-02-12T00:09:01;46.70;;;13.05;;
1523;SDS011;755;53.658;10.118;2023-02-12T00:19:05;41.75;;;10.52;;
1523;SDS011;755;53.658;10.118;2023-02-12T00:29:09;32.10;;;9.63;;
1523;SDS011;755;53.658;10.118;2023-02-12T00:39:12;36.90;;;10.82;;
1523;SDS011;755;53.658;10.118;2023-02-12T00:49:16;42.13;;;11.63;;
1523;SDS011;755;53.658;10.118;2023-02-12T00:59:19;48.40;;;12.35;;
1523;SDS011;755;53.658;10.118;2023-02-12T01:09:23;27.58;;;8.40;;
1523;SDS011;755;53.658;10.118;2023-02-12T01:19:25;25.27;;;6.95;;
1523;SDS011;755;53.658;10.118;2023-02-12T01:29:30;28.08;;;7.65;;
1523;SDS011;755;53.658;10.118;2023-02-12T01:39:32;17.52;;;6.13;;
1523;SDS011;755;53.658;10.118;2023-02-12T01:49:36;21.70;;;6.40;;
1523;SDS011;755;53.658;10.118;2023-02-12T02:09:47;30.73;;;8.57;;
1523;SDS011;755;53.658;10.118;2023-02-12T02:30:45;48.92;;;12.05;;
1523;SDS011;755;53.658;10.118;2023-02-12T02:40:57;43.17;;;14.57;;
1523;SDS011;755;53.658;10.118;2023-02-12T02:51:08;52.40;;;15.13;;
1523;SDS011;755;53.658;10.118;2023-02-12T03:01:15;52.40;;;15.45;;
1523;SDS011;755;53.658;10.118;2023-02-12T03:11:23;54.10;;;15.33;;
1523;SDS011;755;53.658;10.118;2023-02-12T03:21:30;38.45;;;10.23;;
1523;SDS011;755;53.658;10.118;2023-02-12T03:31:40;36.38;;;12.15;;
1523;SDS011;755;53.658;10.118;2023-02-12T03:41:54;29.85;;;10.15;;
1523;SDS011;755;53.658;10.118;2023-02-12T03:52:03;34.40;;;9.05;;
1523;SDS011;755;53.658;10.118;2023-02-12T04:02:06;21.38;;;7.60;;
1523;SDS011;755;53.658;10.118;2023-02-12T04:22:44;30.55;;;6.80;;
1523;SDS011;755;53.658;10.118;2023-02-12T04:32:56;38.97;;;9.00;;
1523;SDS011;755;53.658;10.118;2023-02-12T04:43:02;34.17;;;9.35;;
1523;SDS011;755;53.658;10.118;2023-02-12T04:53:06;46.45;;;9.75;;
1523;SDS011;755;53.658;10.118;2023-02-12T05:03:09;52.05;;;10.15;;
1523;SDS011;755;53.658;10.118;2023-02-12T05:13:13;82.50;;;12.75;;
1523;SDS011;755;53.658;10.118;2023-02-12T05:23:16;82.72;;;11.88;;
1523;SDS011;755;53.658;10.118;2023-02-12T05:33:20;60.45;;;9.98;;
1523;SDS011;755;53.658;10.118;2023-02-12T05:43:22;51.50;;;9.73;;
1523;SDS011;755;53.658;10.118;2023-02-12T05:53:26;69.93;;;9.65;;
1523;SDS011;755;53.658;10.118;2023-02-12T06:03:29;84.60;;;10.60;;
1523;SDS011;755;53.658;10.118;2023-02-12T06:13:33;75.80;;;10.07;;
1523;SDS011;755;53.658;10.118;2023-02-12T06:23:35;98.68;;;12.02;;
1523;SDS011;755;53.658;10.118;2023-02-12T06:33:39;92.07;;;15.52;;
1523;SDS011;755;53.658;10.118;2023-02-12T06:43:42;58.38;;;12.48;;
1523;SDS011;755;53.658;10.118;2023-02-12T06:53:46;77.93;;;13.15;;
1523;SDS011;755;53.658;10.118;2023-02-12T07:03:49;105.80;;;15.70;;
1523;SDS011;755;53.658;10.118;2023-02-12T07:13:54;80.57;;;14.63;;
1523;SDS011;755;53.658;10.118;2023-02-12T07:23:58;100.50;;;17.40;;
1523;SDS011;755;53.658;10.118;2023-02-12T07:34:02;120.25;;;16.52;;
1523;SDS011;755;53.658;10.118;2023-02-12T07:44:05;131.02;;;18.20;;
1523;SDS011;755;53.658;10.118;2023-02-12T08:15:59;110.43;;;18.27;;
1523;SDS011;755;53.658;10.118;2023-02-12T08:26:06;134.98;;;18.20;;
1523;SDS011;755;53.658;10.118;2023-02-12T08:36:36;103.25;;;17.15;;
1523;SDS011;755;53.658;10.118;2023-02-12T08:46:43;93.60;;;18.25;;
1523;SDS011;755;53.658;10.118;2023-02-12T08:56:48;99.10;;;18.52;;
1523;SDS011;755;53.658;10.118;2023-02-12T09:06:50;93.90;;;17.42;;
1523;SDS011;755;53.658;10.118;2023-02-12T09:16:54;88.97;;;15.75;;
1523;SDS011;755;53.658;10.118;2023-02-12T09:26:57;84.57;;;16.92;;
1523;SDS011;755;53.658;10.118;2023-02-12T09:37:00;82.20;;;15.68;;
1523;SDS011;755;53.658;10.118;2023-02-12T09:47:03;86.47;;;18.02;;
1523;SDS011;755;53.658;10.118;2023-02-12T09:57:18;79.97;;;17.30;;
1523;SDS011;755;53.658;10.118;2023-02-12T10:07:28;93.80;;;18.48;;
1523;SDS011;755;53.658;10.118;2023-02-12T10:17:49;83.35;;;16.15;;
1523;SDS011;755;53.658;10.118;2023-02-12T10:27:59;76.97;;;17.42;;
1523;SDS011;755;53.658;10.118;2023-02-12T10:38:05;62.22;;;15.70;;
1523;SDS011;755;53.658;10.118;2023-02-12T10:48:15;82.00;;;18.30;;
1523;SDS011;755;53.658;10.118;2023-02-12T10:58:22;88.57;;;16.50;;
1523;SDS011;755;53.658;10.118;2023-02-12T11:08:26;86.95;;;18.58;;
1523;SDS011;755;53.658;10.118;2023-02-12T11:18:33;92.68;;;19.38;;
1523;SDS011;755;53.658;10.118;2023-02-12T11:28:37;86.60;;;18.48;;
1523;SDS011;755;53.658;10.118;2023-02-12T11:38:48;87.93;;;20.00;;
1523;SDS011;755;53.658;10.118;2023-02-12T11:48:54;68.18;;;17.15;;
1523;SDS011;755;53.658;10.118;2023-02-12T11:59:09;68.77;;;16.50;;
1523;SDS011;755;53.658;10.118;2023-02-12T12:09:18;50.23;;;14.40;;
1523;SDS011;755;53.658;10.118;2023-02-12T12:19:28;45.38;;;10.88;;
1523;SDS011;755;53.658;10.118;2023-02-12T12:29:54;52.65;;;12.05;;
1523;SDS011;755;53.658;10.118;2023-02-12T12:40:10;43.85;;;12.35;;
1523;SDS011;755;53.658;10.118;2023-02-12T12:50:40;37.58;;;10.50;;
1523;SDS011;755;53.658;10.118;2023-02-12T13:01:02;28.08;;;9.45;;
1523;SDS011;755;53.658;10.118;2023-02-12T13:11:20;24.20;;;8.90;;
1523;SDS011;755;53.658;10.118;2023-02-12T13:21:37;16.77;;;6.20;;
1523;SDS011;755;53.658;10.118;2023-02-12T13:31:46;18.25;;;5.97;;
1523;SDS011;755;53.658;10.118;2023-02-12T13:41:56;17.50;;;6.13;;
1523;SDS011;755;53.658;10.118;2023-02-12T13:52:06;20.25;;;6.05;;
1523;SDS011;755;53.658;10.118;2023-02-12T14:12:48;21.60;;;7.53;;
1523;SDS011;755;53.658;10.118;2023-02-12T14:22:59;19.42;;;7.80;;
1523;SDS011;755;53.658;10.118;2023-02-12T14:43:27;23.05;;;7.70;;
1523;SDS011;755;53.658;10.118;2023-02-12T14:53:32;22.85;;;7.93;;
1523;SDS011;755;53.658;10.118;2023-02-12T15:03:39;23.23;;;7.88;;
1523;SDS011;755;53.658;10.118;2023-02-12T15:23:59;18.38;;;7.03;;
1523;SDS011;755;53.658;10.118;2023-02-12T15:34:02;15.50;;;6.60;;
1523;SDS011;755;53.658;10.118;2023-02-12T15:44:18;14.07;;;6.70;;
1523;SDS011;755;53.658;10.118;2023-02-12T15:54:26;13.45;;;6.20;;
1523;SDS011;755;53.658;10.118;2023-02-12T16:04:30;12.77;;;6.15;;
1523;SDS011;755;53.658;10.118;2023-02-12T16:14:38;12.25;;;6.32;;
1523;SDS011;755;53.658;10.118;2023-02-12T16:24:45;11.68;;;5.95;;
1523;SDS011;755;53.658;10.118;2023-02-12T16:34:56;14.57;;;7.50;;
1523;SDS011;755;53.658;10.118;2023-02-12T16:45:02;13.95;;;7.03;;
1523;SDS011;755;53.658;10.118;2023-02-12T16:55:34;17.25;;;8.90;;
1523;SDS011;755;53.658;10.118;2023-02-12T17:05:38;21.70;;;10.30;;
1523;SDS011;755;53.658;10.118;2023-02-12T17:15:43;26.63;;;12.18;;
1523;SDS011;755;53.658;10.118;2023-02-12T17:25:50;28.92;;;12.57;;
1523;SDS011;755;53.658;10.118;2023-02-12T17:35:52;28.45;;;11.27;;
1523;SDS011;755;53.658;10.118;2023-02-12T17:45:56;32.05;;;12.93;;
1523;SDS011;755;53.658;10.118;2023-02-12T17:55:59;30.20;;;12.40;;
1523;SDS011;755;53.658;10.118;2023-02-12T18:06:03;30.17;;;12.55;;
1523;SDS011;755;53.658;10.118;2023-02-12T18:16:06;30.30;;;11.95;;
1523;SDS011;755;53.658;10.118;2023-02-12T18:26:11;31.48;;;13.43;;
1523;SDS011;755;53.658;10.118;2023-02-12T18:36:15;33.22;;;13.48;;
1523;SDS011;755;53.658;10.118;2023-02-12T18:46:21;31.80;;;12.55;;
1523;SDS011;755;53.658;10.118;2023-02-12T18:56:24;32.72;;;13.38;;
1523;SDS011;755;53.658;10.118;2023-02-12T19:06:28;33.72;;;11.93;;
1523;SDS011;755;53.658;10.118;2023-02-12T19:16:31;30.98;;;12.70;;
1523;SDS011;755;53.658;10.118;2023-02-12T19:26:34;28.90;;;11.82;;
1523;SDS011;755;53.658;10.118;2023-02-12T19:36:36;29.10;;;13.13;;
1523;SDS011;755;53.658;10.118;2023-02-12T19:46:40;26.92;;;12.10;;
1523;SDS011;755;53.658;10.118;2023-02-12T19:56:42;33.58;;;14.02;;
1523;SDS011;755;53.658;10.118;2023-02-12T20:06:46;33.90;;;13.13;;
1523;SDS011;755;53.658;10.118;2023-02-12T20:16:51;38.40;;;13.15;;
1523;SDS011;755;53.658;10.118;2023-02-12T20:26:56;40.15;;;14.02;;
1523;SDS011;755;53.658;10.118;2023-02-12T20:36:59;35.30;;;14.80;;
1523;SDS011;755;53.658;10.118;2023-02-12T20:47:02;36.92;;;16.42;;
1523;SDS011;755;53.658;10.118;2023-02-12T20:57:04;47.80;;;18.15;;
1523;SDS011;755;53.658;10.118;2023-02-12T21:07:08;37.38;;;17.98;;
1523;SDS011;755;53.658;10.118;2023-02-12T21:17:10;45.83;;;19.95;;
1523;SDS011;755;53.658;10.118;2023-02-12T21:27:13;46.70;;;21.17;;
1523;SDS011;755;53.658;10.118;2023-02-12T21:37:15;50.30;;;19.73;;
1523;SDS011;755;53.658;10.118;2023-02-12T21:47:18;44.45;;;21.38;;
1523;SDS011;755;53.658;10.118;2023-02-12T21:57:20;53.17;;;21.25;;
1523;SDS011;755;53.658;10.118;2023-02-12T22:07:23;47.42;;;19.48;;
1523;SDS011;755;53.658;10.118;2023-02-12T22:17:25;50.60;;;18.23;;
1523;SDS011;755;53.658;10.118;2023-02-12T22:27:30;50.92;;;18.02;;
1523;SDS011;755;53.658;10.118;2023-02-12T22:37:32;48.22;;;18.88;;
1523;SDS011;755;53.658;10.118;2023-02-12T22:47:36;42.45;;;18.02;;
1523;SDS011;755;53.658;10.118;2023-02-12T22:57:38;48.92;;;18.20;;
1523;SDS011;755;53.658;10.118;2023-02-12T23:07:42;52.63;;;19.25;;
1523;SDS011;755;53.658;10.118;2023-02-12T23:17:44;42.17;;;17.67;;
1523;SDS011;755;53.658;10.118;2023-02-12T23:27:47;47.97;;;18.05;;
1523;SDS011;755;53.658;10.118;2023-02-12T23:37:49;44.60;;;17.63;;
1523;SDS011;755;53.658;10.118;2023-02-12T23:47:52;47.30;;;17.25;;
1523;SDS011;755;53.658;10.118;2023-02-12T23:57:57;50.85;;;17.02;;
